Aviation Digital Data Service (ADDS)

Output produced by METARs form (1123 UTC 17 June 2019)
found at http://www.aviationweather.gov/metar/data/
 
METAR text: RJSD 171100Z AUTO 20003KT 140V240 9999 FEW044 SCT050 BKN060 16/15 Q1013
Conditions at: RJSD (SADO AIRPORT , JP) observed 1100 UTC 17 June 2019
Temperature: 16.0°C (61°F)
Dewpoint: 15.0°C (59°F) [RH = 94%]
Pressure (altimeter): 29.91 inches Hg (1013.0 mb)
Winds: from the SSW (200 degrees) at 3 MPH (3 knots; 1.5 m/s)
Visibility: 6 or more miles (10+ km)
Ceiling: 6000 feet AGL
Clouds: few clouds at 4400 feet AGL
scattered clouds at 5000 feet AGL
broken clouds at 6000 feet AGL
Weather: no significant weather observed at this time

METAR text: RJSD 171000Z AUTO VRB03KT 9999 FEW008 BKN044 OVC047 16/15 Q1013
Conditions at: RJSD (SADO AIRPORT , JP) observed 1000 UTC 17 June 2019
Temperature: 16.0°C (61°F)
Dewpoint: 15.0°C (59°F) [RH = 94%]
Pressure (altimeter): 29.91 inches Hg (1013.0 mb)
Winds: variable direction winds at 3 MPH (3 knots; 1.5 m/s)
Visibility: 6 or more miles (10+ km)
Ceiling: 4400 feet AGL
Clouds: few clouds at 800 feet AGL
broken clouds at 4400 feet AGL
overcast cloud deck at 4700 feet AGL
Weather: no significant weather observed at this time

METAR text: RJSD 170900Z AUTO VRB01KT 9999 SCT005 BKN008 OVC048 17/16 Q1012
Conditions at: RJSD (SADO AIRPORT , JP) observed 0900 UTC 17 June 2019
Temperature: 17.0°C (63°F)
Dewpoint: 16.0°C (61°F) [RH = 94%]
Pressure (altimeter): 29.88 inches Hg (1012.0 mb)
Winds: variable direction winds at 1 MPH (1 knots; 0.5 m/s)
Visibility: 6 or more miles (10+ km)
Ceiling: 800 feet AGL
Clouds: scattered clouds at 500 feet AGL
broken clouds at 800 feet AGL
overcast cloud deck at 4800 feet AGL
Weather: no significant weather observed at this time

METAR text: RJSD 170800Z AUTO VRB04KT 2600 -RA BR FEW005 SCT007 BKN013 16/16 Q1012
Conditions at: RJSD (SADO AIRPORT , JP) observed 0800 UTC 17 June 2019
Temperature: 16.0°C (61°F)
Dewpoint: 16.0°C (61°F) [RH = 100%]
Pressure (altimeter): 29.88 inches Hg (1012.0 mb)
Winds: variable direction winds at 5 MPH (4 knots; 2.1 m/s)
Visibility: 1.62 miles (2.61 km)
Ceiling: 1300 feet AGL
Clouds: few clouds at 500 feet AGL
scattered clouds at 700 feet AGL
broken clouds at 1300 feet AGL
Weather: -RA BR  (light rain, mist)

METAR text: RJSD 170700Z AUTO VRB03KT 9999 FEW014 SCT031 BKN033 17/15 Q1012
Conditions at: RJSD (SADO AIRPORT , JP) observed 0700 UTC 17 June 2019
Temperature: 17.0°C (63°F)
Dewpoint: 15.0°C (59°F) [RH = 88%]
Pressure (altimeter): 29.88 inches Hg (1012.0 mb)
Winds: variable direction winds at 3 MPH (3 knots; 1.5 m/s)
Visibility: 6 or more miles (10+ km)
Ceiling: 3300 feet AGL
Clouds: few clouds at 1400 feet AGL
scattered clouds at 3100 feet AGL
broken clouds at 3300 feet AGL
Weather: no significant weather observed at this time

METAR text: RJSD 170600Z AUTO 26006KT 210V300 9999 FEW034 BKN036 BKN041 19/13 Q1012
Conditions at: RJSD (SADO AIRPORT , JP) observed 0600 UTC 17 June 2019
Temperature: 19.0°C (66°F)
Dewpoint: 13.0°C (55°F) [RH = 68%]
Pressure (altimeter): 29.88 inches Hg (1012.0 mb)
Winds: from the W (260 degrees) at 7 MPH (6 knots; 3.1 m/s)
Visibility: 6 or more miles (10+ km)
Ceiling: 3600 feet AGL
Clouds: few clouds at 3400 feet AGL
broken clouds at 3600 feet AGL
broken clouds at 4100 feet AGL
Weather: no significant weather observed at this time

METAR text: RJSD 170500Z AUTO 27008KT 180V310 9999 FEW031 BKN060 BKN080 20/14 Q1012
Conditions at: RJSD (SADO AIRPORT , JP) observed 0500 UTC 17 June 2019
Temperature: 20.0°C (68°F)
Dewpoint: 14.0°C (57°F) [RH = 68%]
Pressure (altimeter): 29.88 inches Hg (1012.0 mb)
Winds: from the W (270 degrees) at 9 MPH (8 knots; 4.1 m/s)
Visibility: 6 or more miles (10+ km)
Ceiling: 6000 feet AGL
Clouds: few clouds at 3100 feet AGL
broken clouds at 6000 feet AGL
broken clouds at 8000 feet AGL
Weather: no significant weather observed at this time

METAR text: RJSD 170400Z AUTO 27010KT 230V310 9999 NSC 20/13 Q1012
Conditions at: RJSD (SADO AIRPORT , JP) observed 0400 UTC 17 June 2019
Temperature: 20.0°C (68°F)
Dewpoint: 13.0°C (55°F) [RH = 64%]
Pressure (altimeter): 29.88 inches Hg (1012.0 mb)
Winds: from the W (270 degrees) at 12 MPH (10 knots; 5.1 m/s)
Visibility: 6 or more miles (10+ km)
Ceiling: at least 12,000 feet AGL
Clouds: sky clear below 12,000 feet AGL
Weather: no significant weather observed at this time

METAR text: RJSD 170300Z AUTO 27007KT 220V300 9999 FEW017 BKN080 20/16 Q1012
Conditions at: RJSD (SADO AIRPORT , JP) observed 0300 UTC 17 June 2019
Temperature: 20.0°C (68°F)
Dewpoint: 16.0°C (61°F) [RH = 78%]
Pressure (altimeter): 29.88 inches Hg (1012.0 mb)
Winds: from the W (270 degrees) at 8 MPH (7 knots; 3.6 m/s)
Visibility: 6 or more miles (10+ km)
Ceiling: 8000 feet AGL
Clouds: few clouds at 1700 feet AGL
broken clouds at 8000 feet AGL
Weather: no significant weather observed at this time

METAR text: RJSD 170200Z AUTO 26006KT 210V340 9999 FEW014 SCT039 BKN044 18/15 Q1012
Conditions at: RJSD (SADO AIRPORT , JP) observed 0200 UTC 17 June 2019
Temperature: 18.0°C (64°F)
Dewpoint: 15.0°C (59°F) [RH = 83%]
Pressure (altimeter): 29.88 inches Hg (1012.0 mb)
Winds: from the W (260 degrees) at 7 MPH (6 knots; 3.1 m/s)
Visibility: 6 or more miles (10+ km)
Ceiling: 4400 feet AGL
Clouds: few clouds at 1400 feet AGL
scattered clouds at 3900 feet AGL
broken clouds at 4400 feet AGL
Weather: no significant weather observed at this time

METAR text: RJSD 170100Z AUTO 27006KT 200V310 3900 -RA BR FEW014 SCT034 BKN044 16/14 Q1011
Conditions at: RJSD (SADO AIRPORT , JP) observed 0100 UTC 17 June 2019
Temperature: 16.0°C (61°F)
Dewpoint: 14.0°C (57°F) [RH = 88%]
Pressure (altimeter): 29.85 inches Hg (1011.0 mb)
Winds: from the W (270 degrees) at 7 MPH (6 knots; 3.1 m/s)
Visibility: 2.42 miles (3.89 km)
Ceiling: 4400 feet AGL
Clouds: few clouds at 1400 feet AGL
scattered clouds at 3400 feet AGL
broken clouds at 4400 feet AGL
Weather: -RA BR  (light rain, mist)

METAR text: RJSD 170000Z AUTO 25003KT 170V340 9999 -RA FEW025 SCT030 BKN031 16/14 Q1011
Conditions at: RJSD (SADO AIRPORT , JP) observed 0000 UTC 17 June 2019
Temperature: 16.0°C (61°F)
Dewpoint: 14.0°C (57°F) [RH = 88%]
Pressure (altimeter): 29.85 inches Hg (1011.0 mb)
Winds: from the WSW (250 degrees) at 3 MPH (3 knots; 1.5 m/s)
Visibility: 6 or more miles (10+ km)
Ceiling: 3100 feet AGL
Clouds: few clouds at 2500 feet AGL
scattered clouds at 3000 feet AGL
broken clouds at 3100 feet AGL
Weather: -RA  (light rain)

METAR text: RJSD 162300Z AUTO VRB03KT 9999 FEW011 BKN028 BKN035 16/14 Q1011
Conditions at: RJSD (SADO AIRPORT , JP) observed 2300 UTC 16 June 2019
Temperature: 16.0°C (61°F)
Dewpoint: 14.0°C (57°F) [RH = 88%]
Pressure (altimeter): 29.85 inches Hg (1011.0 mb)
Winds: variable direction winds at 3 MPH (3 knots; 1.5 m/s)
Visibility: 6 or more miles (10+ km)
Ceiling: 2800 feet AGL
Clouds: few clouds at 1100 feet AGL
broken clouds at 2800 feet AGL
broken clouds at 3500 feet AGL
Weather: no significant weather observed at this time

METAR text: RJSD 162200Z AUTO VRB04KT 9999 FEW027 SCT034 BKN036 17/14 Q1010
Conditions at: RJSD (SADO AIRPORT , JP) observed 2200 UTC 16 June 2019
Temperature: 17.0°C (63°F)
Dewpoint: 14.0°C (57°F) [RH = 82%]
Pressure (altimeter): 29.82 inches Hg (1010.0 mb)
Winds: variable direction winds at 5 MPH (4 knots; 2.1 m/s)
Visibility: 6 or more miles (10+ km)
Ceiling: 3600 feet AGL
Clouds: few clouds at 2700 feet AGL
scattered clouds at 3400 feet AGL
broken clouds at 3600 feet AGL
Weather: no significant weather observed at this time

METAR text: RJSD 162100Z AUTO 21004KT 130V300 9999 BKN029 BKN035 OVC036 15/13 Q1010
Conditions at: RJSD (SADO AIRPORT , JP) observed 2100 UTC 16 June 2019
Temperature: 15.0°C (59°F)
Dewpoint: 13.0°C (55°F) [RH = 88%]
Pressure (altimeter): 29.82 inches Hg (1010.0 mb)
Winds: from the SSW (210 degrees) at 5 MPH (4 knots; 2.1 m/s)
Visibility: 6 or more miles (10+ km)
Ceiling: 2900 feet AGL
Clouds: broken clouds at 2900 feet AGL
broken clouds at 3500 feet AGL
overcast cloud deck at 3600 feet AGL
Weather: no significant weather observed at this time

METAR text: RJSD 162000Z AUTO 23004KT 150V310 9999 FEW026 OVC030 15/12 Q1009
Conditions at: RJSD (SADO AIRPORT , JP) observed 2000 UTC 16 June 2019
Temperature: 15.0°C (59°F)
Dewpoint: 12.0°C (54°F) [RH = 82%]
Pressure (altimeter): 29.79 inches Hg (1009.0 mb)
Winds: from the SW (230 degrees) at 5 MPH (4 knots; 2.1 m/s)
Visibility: 6 or more miles (10+ km)
Ceiling: 3000 feet AGL
Clouds: few clouds at 2600 feet AGL
overcast cloud deck at 3000 feet AGL
Weather: no significant weather observed at this time

METAR text: RJSD 161900Z AUTO VRB02KT 9999 -RA FEW027 SCT030 BKN033 15/12 Q1008
Conditions at: RJSD (SADO AIRPORT , JP) observed 1900 UTC 16 June 2019
Temperature: 15.0°C (59°F)
Dewpoint: 12.0°C (54°F) [RH = 82%]
Pressure (altimeter): 29.76 inches Hg (1008.0 mb)
Winds: variable direction winds at 2 MPH (2 knots; 1.0 m/s)
Visibility: 6 or more miles (10+ km)
Ceiling: 3300 feet AGL
Clouds: few clouds at 2700 feet AGL
scattered clouds at 3000 feet AGL
broken clouds at 3300 feet AGL
Weather: -RA  (light rain)

METAR text: RJSD 161800Z AUTO VRB03KT 9999 -RA FEW021 SCT026 BKN032 14/13 Q1007
Conditions at: RJSD (SADO AIRPORT , JP) observed 1800 UTC 16 June 2019
Temperature: 14.0°C (57°F)
Dewpoint: 13.0°C (55°F) [RH = 94%]
Pressure (altimeter): 29.73 inches Hg (1007.0 mb)
Winds: variable direction winds at 3 MPH (3 knots; 1.5 m/s)
Visibility: 6 or more miles (10+ km)
Ceiling: 3200 feet AGL
Clouds: few clouds at 2100 feet AGL
scattered clouds at 2600 feet AGL
broken clouds at 3200 feet AGL
Weather: -RA  (light rain)

METAR text: RJSD 161700Z AUTO VRB06KT 6000 -RA FEW011 SCT028 BKN029 14/13 Q1006
Conditions at: RJSD (SADO AIRPORT , JP) observed 1700 UTC 16 June 2019
Temperature: 14.0°C (57°F)
Dewpoint: 13.0°C (55°F) [RH = 94%]
Pressure (altimeter): 29.70 inches Hg (1006.0 mb)
Winds: variable direction winds at 7 MPH (6 knots; 3.1 m/s)
Visibility: 4 miles ( 6 km)
Ceiling: 2900 feet AGL
Clouds: few clouds at 1100 feet AGL
scattered clouds at 2800 feet AGL
broken clouds at 2900 feet AGL
Weather: -RA  (light rain)

METAR text: RJSD 161600Z AUTO 26008G19KT 190V320 7000 -RA FEW016 SCT026 BKN036 14/13 Q1005
Conditions at: RJSD (SADO AIRPORT , JP) observed 1600 UTC 16 June 2019
Temperature: 14.0°C (57°F)
Dewpoint: 13.0°C (55°F) [RH = 94%]
Pressure (altimeter): 29.68 inches Hg (1005.0 mb)
Winds: from the W (260 degrees) at 9 MPH (8 knots; 4.1 m/s)
gusting to 22 MPH (19 knots; 9.8 m/s)
Visibility: 4 miles ( 7 km)
Ceiling: 3600 feet AGL
Clouds: few clouds at 1600 feet AGL
scattered clouds at 2600 feet AGL
broken clouds at 3600 feet AGL
Weather: -RA  (light rain)

METAR text: RJSD 161500Z AUTO VRB03KT 5000 -RA BR FEW010 SCT024 BKN025 14/13 Q1005
Conditions at: RJSD (SADO AIRPORT , JP) observed 1500 UTC 16 June 2019
Temperature: 14.0°C (57°F)
Dewpoint: 13.0°C (55°F) [RH = 94%]
Pressure (altimeter): 29.68 inches Hg (1005.0 mb)
Winds: variable direction winds at 3 MPH (3 knots; 1.5 m/s)
Visibility: 3 miles ( 5 km)
Ceiling: 2500 feet AGL
Clouds: few clouds at 1000 feet AGL
scattered clouds at 2400 feet AGL
broken clouds at 2500 feet AGL
Weather: -RA BR  (light rain, mist)

METAR text: RJSD 161400Z AUTO 18003KT 120V250 3600 -RA BR FEW010 SCT023 BKN027 14/13 Q1003
Conditions at: RJSD (SADO AIRPORT , JP) observed 1400 UTC 16 June 2019
Temperature: 14.0°C (57°F)
Dewpoint: 13.0°C (55°F) [RH = 94%]
Pressure (altimeter): 29.62 inches Hg (1003.0 mb)
Winds: from the S (180 degrees) at 3 MPH (3 knots; 1.5 m/s)
Visibility: 2.24 miles (3.60 km)
Ceiling: 2700 feet AGL
Clouds: few clouds at 1000 feet AGL
scattered clouds at 2300 feet AGL
broken clouds at 2700 feet AGL
Weather: -RA BR  (light rain, mist)

METAR text: RJSD 161300Z AUTO 25005KT 160V310 3600 -RA BR FEW011 SCT031 BKN033 14/13 Q1002
Conditions at: RJSD (SADO AIRPORT , JP) observed 1300 UTC 16 June 2019
Temperature: 14.0°C (57°F)
Dewpoint: 13.0°C (55°F) [RH = 94%]
Pressure (altimeter): 29.59 inches Hg (1002.0 mb)
Winds: from the WSW (250 degrees) at 6 MPH (5 knots; 2.6 m/s)
Visibility: 2.24 miles (3.60 km)
Ceiling: 3300 feet AGL
Clouds: few clouds at 1100 feet AGL
scattered clouds at 3100 feet AGL
broken clouds at 3300 feet AGL
Weather: -RA BR  (light rain, mist)

METAR text: RJSD 161200Z AUTO 27007KT 220V310 4400 -RA BR FEW011 SCT027 BKN032 15/13 Q1002
Conditions at: RJSD (SADO AIRPORT , JP) observed 1200 UTC 16 June 2019
Temperature: 15.0°C (59°F)
Dewpoint: 13.0°C (55°F) [RH = 88%]
Pressure (altimeter): 29.59 inches Hg (1002.0 mb)
Winds: from the W (270 degrees) at 8 MPH (7 knots; 3.6 m/s)
Visibility: 2.73 miles (4.39 km)
Ceiling: 3200 feet AGL
Clouds: few clouds at 1100 feet AGL
scattered clouds at 2700 feet AGL
broken clouds at 3200 feet AGL
Weather: -RA BR  (light rain, mist)

METAR text: RJSD 161100Z AUTO 27008KT 200V300 7000 -RA FEW013 SCT026 BKN033 15/13 Q1000
Conditions at: RJSD (SADO AIRPORT , JP) observed 1100 UTC 16 June 2019
Temperature: 15.0°C (59°F)
Dewpoint: 13.0°C (55°F) [RH = 88%]
Pressure (altimeter): 29.53 inches Hg (1000.0 mb)
Winds: from the W (270 degrees) at 9 MPH (8 knots; 4.1 m/s)
Visibility: 4 miles ( 7 km)
Ceiling: 3300 feet AGL
Clouds: few clouds at 1300 feet AGL
scattered clouds at 2600 feet AGL
broken clouds at 3300 feet AGL
Weather: -RA  (light rain)

METAR text: RJSD 161000Z AUTO 27010G20KT 200V300 9000 -RA FEW013 SCT026 BKN029 15/13 Q0999
Conditions at: RJSD (SADO AIRPORT , JP) observed 1000 UTC 16 June 2019
Temperature: 15.0°C (59°F)
Dewpoint: 13.0°C (55°F) [RH = 88%]
Pressure (altimeter): 29.50 inches Hg (999.0 mb)
Winds: from the W (270 degrees) at 12 MPH (10 knots; 5.1 m/s)
gusting to 23 MPH (20 knots; 10.3 m/s)
Visibility: 6 miles ( 9 km)
Ceiling: 2900 feet AGL
Clouds: few clouds at 1300 feet AGL
scattered clouds at 2600 feet AGL
broken clouds at 2900 feet AGL
Weather: -RA  (light rain)

METAR text: RJSD 160900Z AUTO 27010KT 210V310 5000 RA BR FEW026 SCT032 BKN060 16/14 Q0997
Conditions at: RJSD (SADO AIRPORT , JP) observed 0900 UTC 16 June 2019
Temperature: 16.0°C (61°F)
Dewpoint: 14.0°C (57°F) [RH = 88%]
Pressure (altimeter): 29.44 inches Hg (997.0 mb)
Winds: from the W (270 degrees) at 12 MPH (10 knots; 5.1 m/s)
Visibility: 3 miles ( 5 km)
Ceiling: 6000 feet AGL
Clouds: few clouds at 2600 feet AGL
scattered clouds at 3200 feet AGL
broken clouds at 6000 feet AGL
Weather: RA BR  (moderate rain, mist)

METAR text: RJSD 160800Z AUTO 27006G18KT 200V310 6000 RA FEW011 SCT027 BKN032 17/15 Q0996
Conditions at: RJSD (SADO AIRPORT , JP) observed 0800 UTC 16 June 2019
Temperature: 17.0°C (63°F)
Dewpoint: 15.0°C (59°F) [RH = 88%]
Pressure (altimeter): 29.41 inches Hg (996.0 mb)
Winds: from the W (270 degrees) at 7 MPH (6 knots; 3.1 m/s)
gusting to 21 MPH (18 knots; 9.3 m/s)
Visibility: 4 miles ( 6 km)
Ceiling: 3200 feet AGL
Clouds: few clouds at 1100 feet AGL
scattered clouds at 2700 feet AGL
broken clouds at 3200 feet AGL
Weather: RA  (moderate rain)

METAR text: RJSD 160700Z AUTO 27013G28KT 190V310 5000 RA BR FEW014 SCT026 BKN030 17/15 Q0994
Conditions at: RJSD (SADO AIRPORT , JP) observed 0700 UTC 16 June 2019
Temperature: 17.0°C (63°F)
Dewpoint: 15.0°C (59°F) [RH = 88%]
Pressure (altimeter): 29.35 inches Hg (994.0 mb)
Winds: from the W (270 degrees) at 15 MPH (13 knots; 6.7 m/s)
gusting to 32 MPH (28 knots; 14.4 m/s)
Visibility: 3 miles ( 5 km)
Ceiling: 3000 feet AGL
Clouds: few clouds at 1400 feet AGL
scattered clouds at 2600 feet AGL
broken clouds at 3000 feet AGL
Weather: RA BR  (moderate rain, mist)

METAR text: RJSD 160600Z AUTO 27013KT 210V300 4900 RA BR FEW009 SCT020 BKN026 18/16 Q0992
Conditions at: RJSD (SADO AIRPORT , JP) observed 0600 UTC 16 June 2019
Temperature: 18.0°C (64°F)
Dewpoint: 16.0°C (61°F) [RH = 88%]
Pressure (altimeter): 29.29 inches Hg (992.0 mb)
Winds: from the W (270 degrees) at 15 MPH (13 knots; 6.7 m/s)
Visibility: 3 miles ( 5 km)
Ceiling: 2600 feet AGL
Clouds: few clouds at 900 feet AGL
scattered clouds at 2000 feet AGL
broken clouds at 2600 feet AGL
Weather: RA BR  (moderate rain, mist)

METAR text: RJSD 160500Z AUTO 26012G26KT 200V310 7000 -RA FEW008 SCT016 BKN019 18/17 Q0991
Conditions at: RJSD (SADO AIRPORT , JP) observed 0500 UTC 16 June 2019
Temperature: 18.0°C (64°F)
Dewpoint: 17.0°C (63°F) [RH = 94%]
Pressure (altimeter): 29.26 inches Hg (991.0 mb)
Winds: from the W (260 degrees) at 14 MPH (12 knots; 6.2 m/s)
gusting to 30 MPH (26 knots; 13.4 m/s)
Visibility: 4 miles ( 7 km)
Ceiling: 1900 feet AGL
Clouds: few clouds at 800 feet AGL
scattered clouds at 1600 feet AGL
broken clouds at 1900 feet AGL
Weather: -RA  (light rain)

METAR text: RJSD 160400Z AUTO 26012G27KT 190V340 4500 -RA BR FEW008 SCT020 BKN026 18/17 Q0990
Conditions at: RJSD (SADO AIRPORT , JP) observed 0400 UTC 16 June 2019
Temperature: 18.0°C (64°F)
Dewpoint: 17.0°C (63°F) [RH = 94%]
Pressure (altimeter): 29.23 inches Hg (990.0 mb)
Winds: from the W (260 degrees) at 14 MPH (12 knots; 6.2 m/s)
gusting to 31 MPH (27 knots; 13.9 m/s)
Visibility: 2.80 miles (4.51 km)
Ceiling: 2600 feet AGL
Clouds: few clouds at 800 feet AGL
scattered clouds at 2000 feet AGL
broken clouds at 2600 feet AGL
Weather: -RA BR  (light rain, mist)

METAR text: RJSD 160300Z AUTO VRB13G26KT 8000 -RA FEW013 SCT017 BKN019 18/17 Q0989
Conditions at: RJSD (SADO AIRPORT , JP) observed 0300 UTC 16 June 2019
Temperature: 18.0°C (64°F)
Dewpoint: 17.0°C (63°F) [RH = 94%]
Pressure (altimeter): 29.20 inches Hg (989.0 mb)
Winds: variable direction winds at 15 MPH (13 knots; 6.7 m/s)
gusting to 30 MPH (26 knots; 13.4 m/s)
Visibility: 5 miles ( 8 km)
Ceiling: 1900 feet AGL
Clouds: few clouds at 1300 feet AGL
scattered clouds at 1700 feet AGL
broken clouds at 1900 feet AGL
Weather: -RA  (light rain)

METAR text: RJSD 160200Z AUTO 26012G24KT 190V310 3300 RA BR SCT013 BKN019 BKN026 18/17 Q0989
Conditions at: RJSD (SADO AIRPORT , JP) observed 0200 UTC 16 June 2019
Temperature: 18.0°C (64°F)
Dewpoint: 17.0°C (63°F) [RH = 94%]
Pressure (altimeter): 29.20 inches Hg (989.0 mb)
Winds: from the W (260 degrees) at 14 MPH (12 knots; 6.2 m/s)
gusting to 28 MPH (24 knots; 12.3 m/s)
Visibility: 2.05 miles (3.30 km)
Ceiling: 1900 feet AGL
Clouds: scattered clouds at 1300 feet AGL
broken clouds at 1900 feet AGL
broken clouds at 2600 feet AGL
Weather: RA BR  (moderate rain, mist)

METAR text: RJSD 160100Z AUTO 27014G26KT 210V300 3200 -RA BR FEW006 SCT013 BKN015 18/17 Q0987
Conditions at: RJSD (SADO AIRPORT , JP) observed 0100 UTC 16 June 2019
Temperature: 18.0°C (64°F)
Dewpoint: 17.0°C (63°F) [RH = 94%]
Pressure (altimeter): 29.14 inches Hg (987.0 mb)
Winds: from the W (270 degrees) at 16 MPH (14 knots; 7.2 m/s)
gusting to 30 MPH (26 knots; 13.4 m/s)
Visibility: 1.99 miles (3.20 km)
Ceiling: 1500 feet AGL
Clouds: few clouds at 600 feet AGL
scattered clouds at 1300 feet AGL
broken clouds at 1500 feet AGL
Weather: -RA BR  (light rain, mist)

METAR text: RJSD 160000Z AUTO VRB09G26KT 1500 -RA BR SCT008 SCT013 BKN025 19/18 Q0986
Conditions at: RJSD (SADO AIRPORT , JP) observed 0000 UTC 16 June 2019
Temperature: 19.0°C (66°F)
Dewpoint: 18.0°C (64°F) [RH = 94%]
Pressure (altimeter): 29.11 inches Hg (986.0 mb)
Winds: variable direction winds at 10 MPH (9 knots; 4.6 m/s)
gusting to 30 MPH (26 knots; 13.4 m/s)
Visibility: 0.93 miles (1.50 km)
Ceiling: 2500 feet AGL
Clouds: scattered clouds at 800 feet AGL
scattered clouds at 1300 feet AGL
broken clouds at 2500 feet AGL
Weather: -RA BR  (light rain, mist)